Muenster, Germany

3:54 AM CEST on July 08, 2015 (GMT +0200)
Munster-Osnabruck | | Change Station
CLOSE
Current Station
Airport
Location: Muenster,
Elevation: 157 ft
Nearby Weather Stations

Elev 157 ft 52.13 °N, 7.70 °E | Updated 4 minutes ago

Mostly Cloudy
Mostly Cloudy
64 °F
Feels Like 64 °F
N
14
Wind Variable Wind from WSW

Today
High -- | Low -- °F
--% Chance of Precip.
Yesterday
High -- | Low -- °F
Precip. -- in
5:18 AM 9:49 PM
Waning Gibbous, 59% visible
Pressure 29.71 in
Visibility 6.2 miles
Clouds Few 4000 ft
Scattered Clouds 13000 ft
Mostly Cloudy 21000 ft
Dew Point 52 °F
Humidity 64%
Rainfall 0.00 in
Snow Depth Not available.
UV 0 out of 12
Pollen Not available.
Air Quality Not available.
Flu Activity Not available.
METAR EDDG 080150Z 24012KT 9999 FEW040 SCT130 BKN210 18/11 Q1006 NOSIG

More Conditions Fewer Conditions

Pressure 29.71 in
Visibility 6.2 miles
Clouds Few 4000 ft
Scattered Clouds 13000 ft
Mostly Cloudy 21000 ft
Dew Point 52 °F
Humidity 64%
Rainfall 0.00 in
Snow Depth Not available.
UV 0 out of 12
Pollen Not available.
Air Quality Not available.
Flu Activity Not available.
METAR EDDG 080150Z 24012KT 9999 FEW040 SCT130 BKN210 18/11 Q1006 NOSIG

More Conditions Fewer Conditions

10-Day Weather Forecast

×

Almanac

Astronomy

Jul. 08, 2015 Rise Set
Actual Time
Civil Twilight
Nautical Twilight
Astronomical Twilight
Moon
Length of Visible Light
Length of Day
Tomorrow will be .
, % of the Moon is Illuminated

Today's Extremes

Country Highs Country Lows

Community

WunderPhotos

Upload Photos

1,836,002 photos uploaded!

WunderBlogs® & News

Nearby

Air Quality

  Air Quality AQ Index Pollutant
Not available.

Snow Depth

Station Depth Elevation

Earthquake Activity

City Distance Mag. Time & Date
Minimum magnitude displayed is 2.5.

Coastal Water Temperatures

Place Temperature

Stations

Nearby Weather Stations

Station Location Temp. Windchill Dew Point Humidity Wind Precip. Elev Updated Type